createdAt,value
2023-01-25T00:00:07.003Z,102979.09
2023-01-25T00:02:51.827Z,102980.53
2023-01-25T00:05:37.204Z,102974.69
2023-01-25T00:08:22.040Z,102982.66
2023-01-25T00:11:06.866Z,102968.97
2023-01-25T00:13:55.674Z,102968.84
2023-01-25T00:16:41.713Z,102964.69
2023-01-25T00:19:26.771Z,102959.84
2023-01-25T00:22:11.578Z,102962.41
2023-01-25T00:24:56.420Z,102958.78
2023-01-25T00:27:41.225Z,102964.81
2023-01-25T00:30:26.250Z,102952.22
2023-01-25T00:33:17.445Z,102941.09
2023-01-25T00:36:27.751Z,102955.78
2023-01-25T00:39:13.582Z,102951.72
2023-01-25T00:41:58.777Z,102948.91
2023-01-25T00:44:44.928Z,102936.88
2023-01-25T00:47:29.788Z,102942.56
2023-01-25T00:50:15.426Z,102934.75
2023-01-25T00:53:00.936Z,102932.66
2023-01-25T00:55:52.950Z,102934.84
2023-01-25T00:58:40.829Z,102926.47
2023-01-25T01:01:26.173Z,102930.50
2023-01-25T01:04:11.505Z,102935.75
2023-01-25T01:06:57.572Z,102941.69
2023-01-25T01:09:42.485Z,102945.53
2023-01-25T01:12:27.241Z,102944.47
2023-01-25T01:15:11.991Z,102939.53
2023-01-25T01:17:56.858Z,102940.00
2023-01-25T01:20:47.818Z,102933.38
2023-01-25T01:23:33.560Z,102932.81
2023-01-25T01:26:18.846Z,102934.59
2023-01-25T01:29:06.456Z,102932.66
2023-01-25T01:31:52.434Z,102939.69
2023-01-25T01:34:37.498Z,102926.97
2023-01-25T01:37:22.401Z,102935.53
2023-01-25T01:40:08.638Z,102937.78
2023-01-25T01:43:06.366Z,102944.31
2023-01-25T01:45:57.784Z,102934.56
2023-01-25T01:48:45.800Z,102930.00
2023-01-25T01:52:11.036Z,102941.38
2023-01-25T01:55:02.148Z,102923.09
2023-01-25T01:57:50.519Z,102921.44
2023-01-25T02:00:39.491Z,102924.16
2023-01-25T02:03:25.599Z,102927.94
2023-01-25T02:06:16.043Z,102925.66
2023-01-25T02:09:01.667Z,102926.34
2023-01-25T02:11:47.748Z,102918.03
2023-01-25T02:14:34.655Z,102924.22
2023-01-25T02:17:25.546Z,102923.91
2023-01-25T02:20:34.972Z,102914.66
2023-01-25T02:23:48.873Z,102923.34
2023-01-25T02:26:34.121Z,102924.50
2023-01-25T02:29:20.911Z,102914.44
2023-01-25T02:32:06.654Z,102923.91
2023-01-25T02:34:52.004Z,102925.97
2023-01-25T02:37:37.388Z,102911.28
2023-01-25T02:40:22.206Z,102906.41
2023-01-25T02:43:07.584Z,102909.88
2023-01-25T02:45:58.406Z,102911.38
2023-01-25T02:48:44.146Z,102901.47
2023-01-25T02:51:32.149Z,102900.22
2023-01-25T02:54:20.058Z,102896.41
2023-01-25T02:57:05.001Z,102893.03
2023-01-25T02:59:50.423Z,102897.09
2023-01-25T03:02:35.645Z,102902.19
2023-01-25T03:05:22.549Z,102891.03
2023-01-25T03:08:07.439Z,102893.97
2023-01-25T03:10:57.171Z,102894.91
2023-01-25T03:13:42.413Z,102896.84
2023-01-25T03:16:28.143Z,102883.53
2023-01-25T03:19:13.432Z,102879.63
2023-01-25T03:21:58.964Z,102882.16
2023-01-25T03:24:43.829Z,102880.53
2023-01-25T03:27:30.894Z,102873.91
2023-01-25T03:30:16.392Z,102879.00
2023-01-25T03:33:01.444Z,102867.81
2023-01-25T03:35:51.323Z,102854.53
2023-01-25T03:38:36.670Z,102846.47
2023-01-25T03:41:21.867Z,102845.13
2023-01-25T03:44:08.773Z,102838.66
2023-01-25T03:46:53.691Z,102836.59
2023-01-25T03:49:39.199Z,102835.22
2023-01-25T03:52:25.021Z,102836.00
2023-01-25T03:55:10.337Z,102833.91
2023-01-25T03:57:55.959Z,102832.53
2023-01-25T04:00:41.331Z,102825.50
2023-01-25T04:03:30.164Z,102828.94
2023-01-25T04:06:16.040Z,102824.28
2023-01-25T04:09:04.275Z,102815.03
2023-01-25T04:11:50.844Z,102813.78
2023-01-25T04:14:44.260Z,102811.22
2023-01-25T04:17:30.298Z,102813.53
2023-01-25T04:20:15.743Z,102805.28
2023-01-25T04:23:01.003Z,102811.00
2023-01-25T04:26:00.786Z,102820.75
2023-01-25T04:28:45.628Z,102818.81
2023-01-25T04:31:30.600Z,102810.56
2023-01-25T04:34:15.911Z,102803.25
2023-01-25T04:37:01.234Z,102810.44
2023-01-25T04:39:46.251Z,102804.88
2023-01-25T04:42:31.435Z,102807.25
2023-01-25T04:45:16.768Z,102800.50
2023-01-25T04:48:03.899Z,102801.38
2023-01-25T04:50:49.669Z,102806.69
2023-01-25T04:53:34.360Z,102800.41
2023-01-25T04:56:19.438Z,102806.50
2023-01-25T04:59:04.642Z,102803.47
2023-01-25T05:01:49.422Z,102798.38
2023-01-25T05:04:34.387Z,102792.59
2023-01-25T05:07:19.710Z,102805.00
2023-01-25T05:10:06.991Z,102797.06
2023-01-25T05:12:52.161Z,102794.34
2023-01-25T05:15:37.067Z,102793.66
2023-01-25T05:18:22.450Z,102790.59
2023-01-25T05:21:07.308Z,102784.91
2023-01-25T05:23:52.381Z,102786.28
2023-01-25T05:26:40.023Z,102787.91
2023-01-25T05:29:25.164Z,102791.19
2023-01-25T05:32:14.570Z,102793.44
2023-01-25T05:35:05.564Z,102796.59
2023-01-25T05:37:50.851Z,102799.06
2023-01-25T05:40:36.035Z,102789.94
2023-01-25T05:43:21.633Z,102792.19
2023-01-25T05:46:06.825Z,102795.66
2023-01-25T05:48:52.304Z,102784.75
2023-01-25T05:51:37.563Z,102782.31
2023-01-25T05:54:22.562Z,102785.91
2023-01-25T05:57:07.444Z,102783.22
2023-01-25T05:59:52.836Z,102780.97
2023-01-25T06:02:38.254Z,102776.38
2023-01-25T06:05:23.419Z,102782.28
2023-01-25T06:08:08.515Z,102778.25
2023-01-25T06:10:53.450Z,102767.63
2023-01-25T06:13:38.836Z,102767.06
2023-01-25T06:16:26.000Z,102770.09
2023-01-25T06:19:12.981Z,102770.19
2023-01-25T06:21:58.315Z,102772.84
2023-01-25T06:24:43.866Z,102771.44
2023-01-25T06:27:28.762Z,102763.91
2023-01-25T06:30:14.482Z,102768.88
2023-01-25T06:33:00.495Z,102769.50
2023-01-25T06:35:46.070Z,102775.94
2023-01-25T06:38:32.041Z,102780.88
2023-01-25T06:41:17.296Z,102781.03
2023-01-25T06:44:02.447Z,102786.25
2023-01-25T06:46:47.566Z,102792.53
2023-01-25T06:49:32.759Z,102789.13
2023-01-25T06:52:18.028Z,102790.47
2023-01-25T06:55:04.553Z,102781.19
2023-01-25T06:57:49.718Z,102781.75
2023-01-25T07:00:35.006Z,102787.44
2023-01-25T07:03:20.439Z,102784.75
2023-01-25T07:06:08.223Z,102782.69
2023-01-25T07:08:53.592Z,102777.88
2023-01-25T07:11:38.880Z,102778.63
2023-01-25T07:14:24.023Z,102776.22
2023-01-25T07:17:09.041Z,102779.09
2023-01-25T07:19:54.441Z,102771.16
2023-01-25T07:22:39.347Z,102775.81
2023-01-25T07:25:24.721Z,102778.06
2023-01-25T07:28:10.004Z,102772.50
2023-01-25T07:30:55.078Z,102770.13
2023-01-25T07:33:40.108Z,102771.63
2023-01-25T07:36:25.802Z,102775.66
2023-01-25T07:39:11.323Z,102762.50
2023-01-25T07:41:56.083Z,102768.94
2023-01-25T07:44:41.439Z,102760.88
2023-01-25T07:47:26.912Z,102762.38
2023-01-25T07:50:12.657Z,102761.63
2023-01-25T07:52:58.033Z,102762.81
2023-01-25T07:55:43.353Z,102763.09
2023-01-25T07:58:28.510Z,102762.38
2023-01-25T08:01:19.715Z,102759.06
2023-01-25T08:04:05.100Z,102763.88
2023-01-25T08:06:50.208Z,102761.16
2023-01-25T08:09:35.410Z,102757.91
2023-01-25T08:12:20.333Z,102759.38
2023-01-25T08:15:06.366Z,102765.66
2023-01-25T08:17:51.693Z,102762.09
2023-01-25T08:20:37.008Z,102756.81
2023-01-25T08:23:21.871Z,102759.38
2023-01-25T08:26:09.154Z,102760.88
2023-01-25T08:28:55.003Z,102760.28
2023-01-25T08:31:42.321Z,102749.53
2023-01-25T08:34:27.115Z,102743.25
2023-01-25T08:37:12.601Z,102739.19
2023-01-25T08:39:57.796Z,102740.09
2023-01-25T08:42:42.550Z,102742.03
2023-01-25T08:45:27.576Z,102741.31
2023-01-25T08:48:13.037Z,102730.41
2023-01-25T08:51:00.043Z,102734.00
2023-01-25T08:53:45.380Z,102734.28
2023-01-25T08:56:30.349Z,102736.38
2023-01-25T08:59:15.073Z,102728.31
2023-01-25T09:02:00.175Z,102733.53
2023-01-25T09:04:45.367Z,102725.78
2023-01-25T09:07:30.238Z,102732.50
2023-01-25T09:10:15.956Z,102722.06
2023-01-25T09:13:01.233Z,102730.41
2023-01-25T09:15:46.176Z,102714.28
2023-01-25T09:18:32.687Z,102716.94
2023-01-25T09:21:19.048Z,102713.38
2023-01-25T09:24:08.227Z,102717.25
2023-01-25T09:26:59.727Z,102721.00
2023-01-25T09:29:59.982Z,102706.94
2023-01-25T09:32:49.649Z,102704.25
2023-01-25T09:35:37.372Z,102700.66
2023-01-25T09:38:22.859Z,102701.88
2023-01-25T09:41:30.860Z,102701.09
2023-01-25T09:44:54.084Z,102703.19
2023-01-25T09:48:04.799Z,102701.28
2023-01-25T09:51:26.765Z,102693.78
2023-01-25T09:54:13.849Z,102696.34
2023-01-25T09:56:58.856Z,102692.03
2023-01-25T09:59:47.767Z,102696.34
2023-01-25T10:02:49.599Z,102690.50
2023-01-25T10:05:45.025Z,102684.84
2023-01-25T10:08:36.269Z,102686.78
2023-01-25T10:11:26.379Z,102686.78
2023-01-25T10:14:17.903Z,102680.22
2023-01-25T10:17:11.332Z,102680.81
2023-01-25T10:20:07.918Z,102682.00
2023-01-25T10:23:27.393Z,102674.41
2023-01-25T10:26:27.283Z,102682.03
2023-01-25T10:29:21.655Z,102677.69
2023-01-25T10:32:27.403Z,102664.69
2023-01-25T10:35:33.196Z,102653.19
2023-01-25T10:38:25.671Z,102658.44
2023-01-25T10:41:26.017Z,102654.84
2023-01-25T10:44:12.213Z,102652.44
2023-01-25T10:47:06.973Z,102646.63
2023-01-25T10:49:55.647Z,102636.03
2023-01-25T10:52:40.502Z,102629.47
2023-01-25T10:55:25.358Z,102626.47
2023-01-25T10:58:36.504Z,102627.22
2023-01-25T11:01:29.810Z,102626.16
2023-01-25T11:04:35.176Z,102620.66
2023-01-25T11:07:28.163Z,102622.41
2023-01-25T11:10:32.777Z,102607.81
2023-01-25T11:13:20.565Z,102604.22
2023-01-25T11:16:19.318Z,102599.63
2023-01-25T11:19:36.688Z,102598.28
2023-01-25T11:22:23.101Z,102585.13
2023-01-25T11:25:27.304Z,102575.75
2023-01-25T11:28:24.909Z,102572.00
2023-01-25T11:31:23.120Z,102569.91
2023-01-25T11:34:11.519Z,102563.94
2023-01-25T11:37:34.497Z,102563.31
2023-01-25T11:40:33.741Z,102557.22
2023-01-25T11:43:46.261Z,102547.38
2023-01-25T11:46:39.570Z,102542.75
2023-01-25T11:49:53.108Z,102531.44
2023-01-25T11:52:53.412Z,102525.59
2023-01-25T11:55:48.307Z,102523.06
2023-01-25T11:59:02.427Z,102511.25
2023-01-25T12:02:15.240Z,102501.13
2023-01-25T12:05:21.476Z,102495.91
2023-01-25T12:08:42.401Z,102488.75
2023-01-25T12:11:49.072Z,102484.97
2023-01-25T12:14:48.533Z,102482.19
2023-01-25T12:18:02.757Z,102482.06
2023-01-25T12:21:31.278Z,102467.44
2023-01-25T12:24:34.540Z,102459.03
2023-01-25T12:27:46.285Z,102454.47
2023-01-25T12:30:45.946Z,102455.94
2023-01-25T12:33:48.984Z,102442.53
2023-01-25T12:36:37.325Z,102435.22
2023-01-25T12:39:28.119Z,102424.66
2023-01-25T12:42:20.779Z,102417.31
2023-01-25T12:45:15.244Z,102402.91
2023-01-25T12:48:03.229Z,102396.13
2023-01-25T12:50:59.335Z,102385.47
2023-01-25T12:53:47.138Z,102378.19
2023-01-25T12:56:42.911Z,102379.50
2023-01-25T12:59:46.973Z,102378.06
2023-01-25T13:03:03.928Z,102355.47
2023-01-25T13:05:59.447Z,102355.34
2023-01-25T13:08:53.380Z,102347.78
2023-01-25T13:11:40.747Z,102356.44
2023-01-25T13:14:29.530Z,102351.09
2023-01-25T13:17:34.266Z,102347.97
2023-01-25T13:20:40.218Z,102338.53
2023-01-25T13:23:36.038Z,102330.75
2023-01-25T13:26:21.191Z,102328.19
2023-01-25T13:29:32.351Z,102333.44
2023-01-25T13:32:33.051Z,102323.88
2023-01-25T13:35:33.479Z,102322.09
2023-01-25T13:38:21.978Z,102312.44
2023-01-25T13:41:15.438Z,102302.38
2023-01-25T13:44:24.912Z,102306.28
2023-01-25T13:47:17.590Z,102302.94
2023-01-25T13:50:08.797Z,102306.50
2023-01-25T13:53:02.016Z,102307.69
2023-01-25T13:55:53.095Z,102294.88
2023-01-25T13:58:46.136Z,102291.50
2023-01-25T14:01:33.904Z,102291.63
2023-01-25T14:04:19.027Z,102282.06
2023-01-25T14:07:04.361Z,102275.78
2023-01-25T14:09:49.756Z,102276.56
2023-01-25T14:12:39.322Z,102272.97
2023-01-25T14:15:30.674Z,102272.22
2023-01-25T14:18:18.735Z,102266.03
2023-01-25T14:21:10.158Z,102273.47
2023-01-25T14:24:09.687Z,102263.91
2023-01-25T14:26:55.645Z,102266.78
2023-01-25T14:29:41.685Z,102269.72
2023-01-25T14:32:27.845Z,102263.88
2023-01-25T14:35:43.592Z,102264.59
2023-01-25T14:38:40.322Z,102267.72
2023-01-25T14:41:41.922Z,102260.56
2023-01-25T14:44:29.777Z,102265.19
2023-01-25T14:47:21.186Z,102261.47
2023-01-25T14:50:34.464Z,102262.72
2023-01-25T14:53:23.406Z,102258.63
2023-01-25T14:56:42.177Z,102252.50
2023-01-25T14:59:27.251Z,102250.09
2023-01-25T15:02:28.079Z,102244.72
2023-01-25T15:05:30.646Z,102243.41
2023-01-25T15:08:26.995Z,102239.53
2023-01-25T15:11:43.158Z,102234.81
2023-01-25T15:14:28.397Z,102229.56
2023-01-25T15:17:43.695Z,102228.75
2023-01-25T15:20:40.401Z,102213.03
2023-01-25T15:23:27.104Z,102210.28
2023-01-25T15:26:24.480Z,102208.75
2023-01-25T15:29:17.978Z,102211.31
2023-01-25T15:32:03.026Z,102210.50
2023-01-25T15:34:48.468Z,102203.50
2023-01-25T15:37:33.793Z,102207.19
2023-01-25T15:40:18.757Z,102202.13
2023-01-25T15:43:03.579Z,102203.97
2023-01-25T15:45:50.271Z,102205.00
2023-01-25T15:48:42.588Z,102196.22
2023-01-25T15:51:28.138Z,102182.66
2023-01-25T15:54:13.481Z,102174.25
2023-01-25T15:56:59.022Z,102177.09
2023-01-25T15:59:44.373Z,102173.56
2023-01-25T16:02:29.716Z,102188.44
2023-01-25T16:05:15.159Z,102188.22
2023-01-25T16:08:00.246Z,102185.84
2023-01-25T16:10:45.502Z,102176.44
2023-01-25T16:13:30.501Z,102178.41
2023-01-25T16:16:19.341Z,102177.34
2023-01-25T16:19:04.480Z,102169.19
2023-01-25T16:21:50.268Z,102172.59
2023-01-25T16:24:35.918Z,102180.63
2023-01-25T16:27:21.744Z,102168.53
2023-01-25T16:30:15.868Z,102169.09
2023-01-25T16:33:00.908Z,102153.75
2023-01-25T16:35:45.902Z,102162.41
2023-01-25T16:38:31.258Z,102146.63
2023-01-25T16:41:16.846Z,102146.44
2023-01-25T16:44:02.132Z,102142.13
2023-01-25T16:46:47.527Z,102141.66
2023-01-25T16:49:32.928Z,102135.84
2023-01-25T16:52:17.811Z,102137.50
2023-01-25T16:55:02.629Z,102133.81
2023-01-25T16:57:51.111Z,102125.97
2023-01-25T17:00:37.213Z,102127.97
2023-01-25T17:03:22.589Z,102122.28
2023-01-25T17:06:15.023Z,102115.03
2023-01-25T17:09:12.605Z,102119.75
2023-01-25T17:12:09.031Z,102121.13
2023-01-25T17:14:54.109Z,102122.03
2023-01-25T17:17:39.086Z,102116.38
2023-01-25T17:20:24.482Z,102118.69
2023-01-25T17:23:09.872Z,102113.47
2023-01-25T17:25:55.424Z,102103.19
2023-01-25T17:28:41.995Z,102098.75
2023-01-25T17:31:31.107Z,102104.09
2023-01-25T17:34:18.196Z,102102.59
2023-01-25T17:37:03.327Z,102094.09
2023-01-25T17:39:48.747Z,102094.19
2023-01-25T17:42:33.890Z,102082.41
2023-01-25T17:45:18.865Z,102086.41
2023-01-25T17:48:06.352Z,102085.28
2023-01-25T17:51:01.992Z,102083.28
2023-01-25T17:53:47.821Z,102090.47
2023-01-25T17:56:33.579Z,102094.84
2023-01-25T17:59:19.013Z,102112.06
2023-01-25T18:02:03.925Z,102109.44
2023-01-25T18:04:49.360Z,102098.03
2023-01-25T18:07:34.811Z,102090.78
2023-01-25T18:10:20.213Z,102086.56
2023-01-25T18:13:05.555Z,102081.50
2023-01-25T18:15:54.737Z,102075.38
2023-01-25T18:18:41.981Z,102062.00
2023-01-25T18:21:29.523Z,102064.56
2023-01-25T18:24:14.598Z,102061.47
2023-01-25T18:27:16.107Z,102055.88
2023-01-25T18:30:35.148Z,102054.28
2023-01-25T18:33:22.384Z,102050.69
2023-01-25T18:36:07.875Z,102043.72
2023-01-25T18:38:53.157Z,102043.44
2023-01-25T18:41:38.343Z,102046.94
2023-01-25T18:44:23.211Z,102036.25
2023-01-25T18:47:08.983Z,102036.91
2023-01-25T18:49:54.047Z,102036.31
2023-01-25T18:52:41.512Z,102038.31
2023-01-25T18:55:26.344Z,102045.31
2023-01-25T18:58:12.068Z,102027.00
2023-01-25T19:01:21.463Z,102027.81
2023-01-25T19:04:06.759Z,102021.22
2023-01-25T19:06:53.395Z,102018.53
2023-01-25T19:09:38.777Z,102007.22
2023-01-25T19:12:24.322Z,102009.25
2023-01-25T19:15:10.223Z,102013.72
2023-01-25T19:17:55.424Z,101998.84
2023-01-25T19:20:40.311Z,101998.84
2023-01-25T19:23:25.892Z,101994.31
2023-01-25T19:26:14.057Z,101986.88
2023-01-25T19:28:59.118Z,101985.47
2023-01-25T19:31:44.140Z,101977.63
2023-01-25T19:34:29.449Z,101970.56
2023-01-25T19:37:14.866Z,101964.25
2023-01-25T19:40:00.238Z,101967.16
2023-01-25T19:42:45.578Z,101959.44
2023-01-25T19:45:30.920Z,101958.97
2023-01-25T19:48:16.193Z,101956.69
2023-01-25T19:51:11.814Z,101939.63
2023-01-25T19:54:09.856Z,101942.50
2023-01-25T19:56:54.653Z,101928.34
2023-01-25T19:59:39.588Z,101922.91
2023-01-25T20:02:25.161Z,101922.13
2023-01-25T20:05:10.709Z,101917.34
2023-01-25T20:07:55.901Z,101921.13
2023-01-25T20:10:41.270Z,101912.84
2023-01-25T20:13:26.714Z,101910.75
2023-01-25T20:16:12.723Z,101904.03
2023-01-25T20:18:58.290Z,101909.81
2023-01-25T20:21:43.767Z,101914.81
2023-01-25T20:24:28.763Z,101910.50
2023-01-25T20:27:14.039Z,101912.75
2023-01-25T20:29:59.035Z,101906.81
2023-01-25T20:32:44.063Z,101899.44
2023-01-25T20:35:29.811Z,101900.31
2023-01-25T20:38:14.842Z,101915.91
2023-01-25T20:41:05.826Z,101902.63
2023-01-25T20:43:53.286Z,101910.13
2023-01-25T20:46:40.115Z,101906.25
2023-01-25T20:49:25.228Z,101902.00
2023-01-25T20:52:10.203Z,101906.88
2023-01-25T20:54:55.112Z,101907.31
2023-01-25T20:57:40.435Z,101904.41
2023-01-25T21:00:25.438Z,101905.22
2023-01-25T21:03:10.837Z,101901.72
2023-01-25T21:05:57.980Z,101905.03
2023-01-25T21:08:43.388Z,101899.47
2023-01-25T21:11:28.349Z,101893.78
2023-01-25T21:14:13.233Z,101885.34
2023-01-25T21:16:58.263Z,101881.59
2023-01-25T21:19:43.018Z,101884.44
2023-01-25T21:22:28.750Z,101867.66
2023-01-25T21:25:13.952Z,101865.78
2023-01-25T21:27:58.719Z,101858.03
2023-01-25T21:30:43.804Z,101872.34
2023-01-25T21:33:28.941Z,101870.00
2023-01-25T21:36:16.043Z,101867.78
2023-01-25T21:39:01.442Z,101862.47
2023-01-25T21:41:46.508Z,101851.97
2023-01-25T21:44:32.017Z,101855.38
2023-01-25T21:47:29.487Z,101849.44
2023-01-25T21:50:15.786Z,101861.66
2023-01-25T21:53:01.179Z,101856.53
2023-01-25T21:55:46.481Z,101869.41
2023-01-25T21:58:31.357Z,101869.25
2023-01-25T22:01:16.560Z,101870.72
2023-01-25T22:04:01.755Z,101871.28
2023-01-25T22:06:47.208Z,101871.94
2023-01-25T22:09:32.443Z,101870.59
2023-01-25T22:12:17.745Z,101879.75
2023-01-25T22:15:03.424Z,101871.78
2023-01-25T22:17:48.561Z,101867.22
2023-01-25T22:20:33.539Z,101853.00
2023-01-25T22:23:18.641Z,101860.63
2023-01-25T22:26:12.575Z,101860.22
2023-01-25T22:28:59.077Z,101851.22
2023-01-25T22:31:44.408Z,101840.69
2023-01-25T22:34:29.867Z,101837.13
2023-01-25T22:37:14.692Z,101826.34
2023-01-25T22:39:59.647Z,101828.88
2023-01-25T22:42:44.905Z,101822.00
2023-01-25T22:45:30.471Z,101826.84
2023-01-25T22:48:15.356Z,101816.94
2023-01-25T22:51:06.258Z,101807.91
2023-01-25T22:53:51.171Z,101798.28
2023-01-25T22:56:35.980Z,101800.44
2023-01-25T22:59:21.519Z,101805.56
2023-01-25T23:02:06.993Z,101796.88
2023-01-25T23:04:52.494Z,101793.47
2023-01-25T23:07:37.628Z,101791.06
2023-01-25T23:10:23.053Z,101781.94
2023-01-25T23:13:08.276Z,101786.25
2023-01-25T23:15:54.650Z,101781.31
2023-01-25T23:18:39.806Z,101778.66
2023-01-25T23:21:27.311Z,101767.59
2023-01-25T23:24:13.220Z,101759.38
2023-01-25T23:26:58.156Z,101748.16
2023-01-25T23:29:43.095Z,101749.75
2023-01-25T23:32:28.524Z,101751.41
2023-01-25T23:35:13.947Z,101765.25
2023-01-25T23:37:59.298Z,101763.63
2023-01-25T23:40:44.131Z,101769.63
2023-01-25T23:43:29.544Z,101760.72
2023-01-25T23:46:15.576Z,101756.16
2023-01-25T23:49:00.472Z,101750.69
2023-01-25T23:51:45.846Z,101762.31
2023-01-25T23:54:30.946Z,101767.31
2023-01-25T23:57:16.361Z,101757.31
